<?xml version="1.0" encoding="UTF-8" standalone="no" ?>
<gpx xmlns="http://www.topografix.com/GPX/1/1" xmlns:xsi="http://www.w3.org/2001/XMLSchema-instance" xsi:schemaLocation="http://www.topografix.com/GPX/1/1 http://www.topografix.com/GPX/1/1/gpx.xsd" version="1.1" creator="VisuGPX - https://www.visugpx.com">
  <metadata>
    <name>Le Sas Durain</name>
    <desc><![CDATA[Aller Sans Retour 13 km]]></desc>
  </metadata>
  <trk>
    <name><![CDATA[12615149-Le Sas Durain]]></name>
    <trkseg>
      <trkpt lat="47.21233" lon="6.87615">
        <ele>909</ele>
        <time>2021-03-01T05:18:48Z</time>
      </trkpt>
      <trkpt lat="47.21195" lon="6.87718">
        <ele>909</ele>
        <time>2021-03-01T05:19:07Z</time>
      </trkpt>
      <trkpt lat="47.21163" lon="6.87846">
        <ele>909</ele>
        <time>2021-03-01T05:19:28Z</time>
      </trkpt>
      <trkpt lat="47.21102" lon="6.87833">
        <ele>912</ele>
        <time>2021-03-01T05:19:43Z</time>
      </trkpt>
      <trkpt lat="47.21029" lon="6.87821">
        <ele>912</ele>
        <time>2021-03-01T05:20:00Z</time>
      </trkpt>
      <trkpt lat="47.20976" lon="6.8779">
        <ele>909</ele>
        <time>2021-03-01T05:20:13Z</time>
      </trkpt>
      <trkpt lat="47.20944" lon="6.87872">
        <ele>903</ele>
        <time>2021-03-01T05:20:28Z</time>
      </trkpt>
      <trkpt lat="47.20851" lon="6.87915">
        <ele>879</ele>
        <time>2021-03-01T05:20:51Z</time>
      </trkpt>
      <trkpt lat="47.20892" lon="6.88052">
        <ele>870</ele>
        <time>2021-03-01T05:21:15Z</time>
      </trkpt>
      <trkpt lat="47.20965" lon="6.88155">
        <ele>854</ele>
        <time>2021-03-01T05:21:38Z</time>
      </trkpt>
      <trkpt lat="47.21005" lon="6.88258">
        <ele>841</ele>
        <time>2021-03-01T05:21:57Z</time>
      </trkpt>
      <trkpt lat="47.20967" lon="6.88331">
        <ele>828</ele>
        <time>2021-03-01T05:22:12Z</time>
      </trkpt>
      <trkpt lat="47.20985" lon="6.88494">
        <ele>813</ele>
        <time>2021-03-01T05:22:38Z</time>
      </trkpt>
      <trkpt lat="47.21119" lon="6.88829">
        <ele>793</ele>
        <time>2021-03-01T05:23:40Z</time>
      </trkpt>
      <trkpt lat="47.21067" lon="6.88919">
        <ele>780</ele>
        <time>2021-03-01T05:23:58Z</time>
      </trkpt>
      <trkpt lat="47.20935" lon="6.88885">
        <ele>762</ele>
        <time>2021-03-01T05:24:30Z</time>
      </trkpt>
      <trkpt lat="47.20638" lon="6.88542">
        <ele>691</ele>
        <time>2021-03-01T05:25:58Z</time>
      </trkpt>
      <trkpt lat="47.20571" lon="6.88336">
        <ele>682</ele>
        <time>2021-03-01T05:26:34Z</time>
      </trkpt>
      <trkpt lat="47.20454" lon="6.88357">
        <ele>641</ele>
        <time>2021-03-01T05:27:01Z</time>
      </trkpt>
      <trkpt lat="47.2037" lon="6.88194">
        <ele>649</ele>
        <time>2021-03-01T05:27:34Z</time>
      </trkpt>
      <trkpt lat="47.20432" lon="6.88417">
        <ele>614</ele>
        <time>2021-03-01T05:28:12Z</time>
      </trkpt>
      <trkpt lat="47.2033" lon="6.88327">
        <ele>603</ele>
        <time>2021-03-01T05:28:40Z</time>
      </trkpt>
      <trkpt lat="47.20362" lon="6.88434">
        <ele>575</ele>
        <time>2021-03-01T05:28:58Z</time>
      </trkpt>
      <trkpt lat="47.20248" lon="6.88374">
        <ele>569</ele>
        <time>2021-03-01T05:29:27Z</time>
      </trkpt>
      <trkpt lat="47.20412" lon="6.88567">
        <ele>569</ele>
        <time>2021-03-01T05:30:16Z</time>
      </trkpt>
      <trkpt lat="47.20187" lon="6.88301">
        <ele>568</ele>
        <time>2021-03-01T05:31:23Z</time>
      </trkpt>
      <trkpt lat="47.20161" lon="6.88044">
        <ele>582</ele>
        <time>2021-03-01T05:32:04Z</time>
      </trkpt>
      <trkpt lat="47.19969" lon="6.87911">
        <ele>570</ele>
        <time>2021-03-01T05:32:54Z</time>
      </trkpt>
      <trkpt lat="47.19575" lon="6.87752">
        <ele>567</ele>
        <time>2021-03-01T05:34:29Z</time>
      </trkpt>
      <trkpt lat="47.19275" lon="6.874">
        <ele>575</ele>
        <time>2021-03-01T05:35:59Z</time>
      </trkpt>
      <trkpt lat="47.18989" lon="6.87233">
        <ele>597</ele>
        <time>2021-03-01T05:37:11Z</time>
      </trkpt>
      <trkpt lat="47.18755" lon="6.87288">
        <ele>577</ele>
        <time>2021-03-01T05:38:06Z</time>
      </trkpt>
      <trkpt lat="47.1865" lon="6.87348">
        <ele>587</ele>
        <time>2021-03-01T05:38:32Z</time>
      </trkpt>
      <trkpt lat="47.18936" lon="6.87239">
        <ele>577</ele>
        <time>2021-03-01T05:39:41Z</time>
      </trkpt>
      <trkpt lat="47.19167" lon="6.87287">
        <ele>611</ele>
        <time>2021-03-01T05:40:36Z</time>
      </trkpt>
      <trkpt lat="47.19552" lon="6.87687">
        <ele>585</ele>
        <time>2021-03-01T05:42:26Z</time>
      </trkpt>
      <trkpt lat="47.19951" lon="6.87859">
        <ele>585</ele>
        <time>2021-03-01T05:44:03Z</time>
      </trkpt>
      <trkpt lat="47.20097" lon="6.87949">
        <ele>578</ele>
        <time>2021-03-01T05:44:40Z</time>
      </trkpt>
      <trkpt lat="47.20187" lon="6.88134">
        <ele>587</ele>
        <time>2021-03-01T05:45:16Z</time>
      </trkpt>
      <trkpt lat="47.20257" lon="6.88198">
        <ele>618</ele>
        <time>2021-03-01T05:45:35Z</time>
      </trkpt>
      <trkpt lat="47.20246" lon="6.88117">
        <ele>628</ele>
        <time>2021-03-01T05:45:49Z</time>
      </trkpt>
      <trkpt lat="47.20368" lon="6.88151">
        <ele>656</ele>
        <time>2021-03-01T05:46:18Z</time>
      </trkpt>
      <trkpt lat="47.20272" lon="6.88065">
        <ele>646</ele>
        <time>2021-03-01T05:46:44Z</time>
      </trkpt>
      <trkpt lat="47.20295" lon="6.87975">
        <ele>663</ele>
        <time>2021-03-01T05:46:59Z</time>
      </trkpt>
      <trkpt lat="47.20292" lon="6.87889">
        <ele>674</ele>
        <time>2021-03-01T05:47:13Z</time>
      </trkpt>
      <trkpt lat="47.20173" lon="6.87782">
        <ele>680</ele>
        <time>2021-03-01T05:47:45Z</time>
      </trkpt>
      <trkpt lat="47.20138" lon="6.8767">
        <ele>699</ele>
        <time>2021-03-01T05:48:05Z</time>
      </trkpt>
      <trkpt lat="47.20021" lon="6.87593">
        <ele>708</ele>
        <time>2021-03-01T05:48:35Z</time>
      </trkpt>
      <trkpt lat="47.19671" lon="6.87469">
        <ele>708</ele>
        <time>2021-03-01T05:49:59Z</time>
      </trkpt>
      <trkpt lat="47.19496" lon="6.87267">
        <ele>713</ele>
        <time>2021-03-01T05:50:51Z</time>
      </trkpt>
      <trkpt lat="47.18855" lon="6.871">
        <ele>679</ele>
        <time>2021-03-01T05:53:23Z</time>
      </trkpt>
      <trkpt lat="47.18715" lon="6.87125">
        <ele>656</ele>
        <time>2021-03-01T05:53:56Z</time>
      </trkpt>
      <trkpt lat="47.18642" lon="6.87108">
        <ele>633</ele>
        <time>2021-03-01T05:54:13Z</time>
      </trkpt>
      <trkpt lat="47.1861" lon="6.87164">
        <ele>610</ele>
        <time>2021-03-01T05:54:25Z</time>
      </trkpt>
      <trkpt lat="47.18611" lon="6.87129">
        <ele>614</ele>
        <time>2021-03-01T05:54:30Z</time>
      </trkpt>
      <trkpt lat="47.18628" lon="6.87091">
        <ele>628</ele>
        <time>2021-03-01T05:54:37Z</time>
      </trkpt>
      <trkpt lat="47.18693" lon="6.87086">
        <ele>659</ele>
        <time>2021-03-01T05:54:53Z</time>
      </trkpt>
      <trkpt lat="47.18669" lon="6.87001">
        <ele>659</ele>
        <time>2021-03-01T05:55:07Z</time>
      </trkpt>
      <trkpt lat="47.18675" lon="6.86913">
        <ele>666</ele>
        <time>2021-03-01T05:55:21Z</time>
      </trkpt>
      <trkpt lat="47.1868" lon="6.86747">
        <ele>690</ele>
        <time>2021-03-01T05:55:48Z</time>
      </trkpt>
      <trkpt lat="47.18566" lon="6.86478">
        <ele>693</ele>
        <time>2021-03-01T05:56:38Z</time>
      </trkpt>
      <trkpt lat="47.18461" lon="6.86285">
        <ele>728</ele>
        <time>2021-03-01T05:57:17Z</time>
      </trkpt>
      <trkpt lat="47.18264" lon="6.86092">
        <ele>722</ele>
        <time>2021-03-01T05:58:12Z</time>
      </trkpt>
      <trkpt lat="47.18301" lon="6.85697">
        <ele>779</ele>
        <time>2021-03-01T05:59:16Z</time>
      </trkpt>
      <trkpt lat="47.18464" lon="6.85998">
        <ele>808</ele>
        <time>2021-03-01T06:00:17Z</time>
      </trkpt>
      <trkpt lat="47.18399" lon="6.85589">
        <ele>832</ele>
        <time>2021-03-01T06:01:23Z</time>
      </trkpt>
      <trkpt lat="47.18344" lon="6.85205">
        <ele>840</ele>
        <time>2021-03-01T06:02:26Z</time>
      </trkpt>
      <trkpt lat="47.18398" lon="6.85123">
        <ele>888</ele>
        <time>2021-03-01T06:02:44Z</time>
      </trkpt>
      <trkpt lat="47.18372" lon="6.84972">
        <ele>904</ele>
        <time>2021-03-01T06:03:09Z</time>
      </trkpt>
      <trkpt lat="47.18334" lon="6.84791">
        <ele>933</ele>
        <time>2021-03-01T06:03:39Z</time>
      </trkpt>
      <trkpt lat="47.18303" lon="6.84738">
        <ele>919</ele>
        <time>2021-03-01T06:03:50Z</time>
      </trkpt>
      <trkpt lat="47.18301" lon="6.84676">
        <ele>935</ele>
        <time>2021-03-01T06:04:00Z</time>
      </trkpt>
      <trkpt lat="47.18176" lon="6.84442">
        <ele>917</ele>
        <time>2021-03-01T06:04:47Z</time>
      </trkpt>
      <trkpt lat="47.18255" lon="6.84284">
        <ele>943</ele>
        <time>2021-03-01T06:05:18Z</time>
      </trkpt>
    </trkseg>
  </trk>
</gpx>